Time;durP1;ratioP1;P1;durP2;ratioP2;P2;SDS_P1;SDS_P2;PMS_P1;PMS_P2;Temp;Humidity;BMP_temperature;BMP_pressure;BME280_temperature;BME280_humidity;BME280_pressure;Samples;Min_cycle;Max_cycle;Signal;HPM_P1;HPM_P2
2024/05/06 00:00:40;;;;;;;30.92;21.27;;;;;;;;;;5429274;26;19998;-79
2024/05/06 00:03:06;;;;;;;42.08;23.25;;;;;;;;;;5425421;26;20068;-81
2024/05/06 00:05:32;;;;;;;29.50;21.10;;;;;;;;;;5424787;26;19996;-87
2024/05/06 00:07:58;;;;;;;35.78;21.40;;;;;;;;;;5425677;26;20001;-86
2024/05/06 00:10:24;;;;;;;34.42;23.08;;;;;;;;;;5426010;26;19995;-82
2024/05/06 00:12:51;;;;;;;35.03;21.55;;;;;;;;;;5426883;26;20003;-82
2024/05/06 00:15:17;;;;;;;37.13;23.10;;;;;;;;;;5424921;26;19997;-83
2024/05/06 00:17:43;;;;;;;39.42;23.83;;;;;;;;;;5424964;26;19999;-88
2024/05/06 00:20:11;;;;;;;43.63;24.08;;;;;;;;;;5426432;26;20023;-79
2024/05/06 00:22:38;;;;;;;39.17;23.88;;;;;;;;;;5425869;26;20024;-88
2024/05/06 00:25:04;;;;;;;41.50;23.95;;;;;;;;;;5425365;26;19995;-81
2024/05/06 00:27:30;;;;;;;38.00;23.52;;;;;;;;;;5422449;26;20023;-88
2024/05/06 00:29:56;;;;;;;35.85;23.30;;;;;;;;;;5393152;26;19999;-86
2024/05/06 00:32:23;;;;;;;38.33;23.40;;;;;;;;;;5423485;26;20423;-84
2024/05/06 00:34:49;;;;;;;43.03;23.60;;;;;;;;;;5425870;26;19992;-87
2024/05/06 00:37:15;;;;;;;40.30;22.98;;;;;;;;;;5426088;26;20289;-82
2024/05/06 00:39:41;;;;;;;41.80;25.75;;;;;;;;;;5428815;26;20000;-83
2024/05/06 00:42:07;;;;;;;38.20;25.33;;;;;;;;;;5426243;26;20003;-84
2024/05/06 00:44:33;;;;;;;40.85;25.13;;;;;;;;;;5426061;26;20006;-84
2024/05/06 00:46:59;;;;;;;38.20;23.25;;;;;;;;;;5424105;26;19993;-91
2024/05/06 00:49:26;;;;;;;46.08;26.10;;;;;;;;;;5424333;26;20011;-84
2024/05/06 00:51:53;;;;;;;39.58;23.02;;;;;;;;;;5424264;26;20428;-90
2024/05/06 00:54:19;;;;;;;44.17;26.00;;;;;;;;;;5396345;26;20012;-90
2024/05/06 00:56:47;;;;;;;38.80;23.98;;;;;;;;;;5396835;26;20002;-84
2024/05/06 00:59:14;;;;;;;44.72;25.25;;;;;;;;;;5424348;26;19999;-88
2024/05/06 01:01:41;;;;;;;42.58;25.17;;;;;;;;;;5395098;26;19991;-90
2024/05/06 01:04:08;;;;;;;43.75;26.80;;;;;;;;;;5426018;26;20000;-90
2024/05/06 01:06:35;;;;;;;40.55;25.42;;;;;;;;;;5424762;26;20001;-88
2024/05/06 01:09:02;;;;;;;37.25;23.70;;;;;;;;;;5427852;26;20006;-90
2024/05/06 01:11:28;;;;;;;42.10;24.17;;;;;;;;;;5425864;26;19996;-90
2024/05/06 01:13:54;;;;;;;42.72;24.42;;;;;;;;;;5418887;26;20005;-89
2024/05/06 01:16:22;;;;;;;39.10;23.85;;;;;;;;;;5389877;26;19992;-86
2024/05/06 01:18:48;;;;;;;36.05;22.50;;;;;;;;;;5387574;26;20001;-88
2024/05/06 01:21:20;;;;;;;38.70;24.48;;;;;;;;;;5404696;26;19992;-86
2024/05/06 01:23:47;;;;;;;41.00;24.70;;;;;;;;;;5430313;26;20048;-86
2024/05/06 01:26:13;;;;;;;37.35;22.73;;;;;;;;;;5431005;26;20123;-87
2024/05/06 01:28:39;;;;;;;41.97;24.38;;;;;;;;;;5432559;26;19996;-86
2024/05/06 01:31:05;;;;;;;38.42;23.30;;;;;;;;;;5425983;26;19991;-90
2024/05/06 01:33:31;;;;;;;37.28;23.30;;;;;;;;;;5425988;26;20525;-87
2024/05/06 01:35:57;;;;;;;40.28;23.17;;;;;;;;;;5424289;26;19988;-83
2024/05/06 01:38:23;;;;;;;38.45;24.42;;;;;;;;;;5424805;26;20042;-87
2024/05/06 01:40:49;;;;;;;40.25;22.85;;;;;;;;;;5422453;26;20037;-84
2024/05/06 01:43:15;;;;;;;38.15;21.77;;;;;;;;;;5425127;26;19999;-86
2024/05/06 01:45:42;;;;;;;36.10;21.15;;;;;;;;;;5426703;26;20097;-81
2024/05/06 01:48:08;;;;;;;35.63;21.15;;;;;;;;;;5425651;26;20010;-85
2024/05/06 01:50:34;;;;;;;35.38;20.40;;;;;;;;;;5426429;26;20003;-80
2024/05/06 01:53:00;;;;;;;39.25;22.85;;;;;;;;;;5425294;26;20019;-82
2024/05/06 01:55:26;;;;;;;35.78;21.60;;;;;;;;;;5423515;26;20015;-90
2024/05/06 01:57:52;;;;;;;38.88;22.83;;;;;;;;;;5425701;26;20025;-88
2024/05/06 02:00:18;;;;;;;40.75;23.85;;;;;;;;;;5394510;26;20000;-85
2024/05/06 02:02:44;;;;;;;42.72;23.88;;;;;;;;;;5424311;26;20010;-84
2024/05/06 02:05:10;;;;;;;43.28;25.15;;;;;;;;;;5424430;26;19999;-88
2024/05/06 02:07:36;;;;;;;38.97;22.08;;;;;;;;;;5426706;26;20011;-88
2024/05/06 02:10:03;;;;;;;43.95;23.15;;;;;;;;;;5431516;26;20000;-80
2024/05/06 02:12:29;;;;;;;41.75;24.67;;;;;;;;;;5427593;26;20018;-83
2024/05/06 02:14:55;;;;;;;43.55;23.63;;;;;;;;;;5423381;26;19995;-83
2024/05/06 02:17:21;;;;;;;37.05;22.55;;;;;;;;;;5423631;26;20014;-86
2024/05/06 02:19:47;;;;;;;35.92;22.08;;;;;;;;;;5424476;26;20447;-87
2024/05/06 02:22:13;;;;;;;35.47;22.25;;;;;;;;;;5422842;26;20023;-88
2024/05/06 02:24:39;;;;;;;32.67;19.70;;;;;;;;;;5423424;26;20002;-91
2024/05/06 02:27:05;;;;;;;40.53;21.75;;;;;;;;;;5422842;26;19999;-86
2024/05/06 02:29:31;;;;;;;41.38;22.88;;;;;;;;;;5417839;26;20010;-85
2024/05/06 02:31:57;;;;;;;30.48;20.00;;;;;;;;;;5421054;26;20024;-82
2024/05/06 02:34:23;;;;;;;35.83;22.00;;;;;;;;;;5419484;26;19991;-80
2024/05/06 02:36:49;;;;;;;38.17;22.85;;;;;;;;;;5418572;26;19995;-84
2024/05/06 02:39:15;;;;;;;37.35;22.52;;;;;;;;;;5421343;26;20004;-82
2024/05/06 02:41:41;;;;;;;32.22;22.02;;;;;;;;;;5421247;26;19999;-84
2024/05/06 02:44:07;;;;;;;39.25;23.42;;;;;;;;;;5421088;26;20004;-87
2024/05/06 02:46:33;;;;;;;35.10;22.73;;;;;;;;;;5420759;26;19996;-86
2024/05/06 02:49:00;;;;;;;35.53;22.95;;;;;;;;;;5421018;26;20031;-86
2024/05/06 02:51:27;;;;;;;39.90;25.20;;;;;;;;;;5422399;26;19991;-83
2024/05/06 02:53:53;;;;;;;40.53;24.05;;;;;;;;;;5421567;26;20535;-89
2024/05/06 02:56:19;;;;;;;39.05;24.60;;;;;;;;;;5421520;26;20011;-84
2024/05/06 02:58:45;;;;;;;37.00;25.50;;;;;;;;;;5421256;26;20031;-86
2024/05/06 03:01:11;;;;;;;43.67;25.33;;;;;;;;;;5423162;26;20011;-90
2024/05/06 03:03:37;;;;;;;39.30;24.35;;;;;;;;;;5420723;26;20011;-89
2024/05/06 03:06:05;;;;;;;39.10;25.70;;;;;;;;;;5424828;26;19995;-84
2024/05/06 03:08:32;;;;;;;45.20;26.52;;;;;;;;;;5422403;26;19991;-89
2024/05/06 03:11:01;;;;;;;43.03;25.17;;;;;;;;;;5422696;26;20008;-89
2024/05/06 03:13:29;;;;;;;39.00;23.38;;;;;;;;;;5423803;26;20000;-87
2024/05/06 03:15:55;;;;;;;36.88;23.08;;;;;;;;;;5395822;26;20041;-88
2024/05/06 03:18:21;;;;;;;36.03;22.05;;;;;;;;;;5424857;26;20020;-91
2024/05/06 03:20:47;;;;;;;34.70;21.63;;;;;;;;;;5426934;26;19999;-90
2024/05/06 03:23:14;;;;;;;35.90;22.08;;;;;;;;;;5423149;26;20011;-88
2024/05/06 03:25:40;;;;;;;33.65;23.10;;;;;;;;;;5425359;26;19999;-88
2024/05/06 03:28:06;;;;;;;31.92;21.55;;;;;;;;;;5423491;26;19995;-89
2024/05/06 03:30:32;;;;;;;32.67;21.02;;;;;;;;;;5424911;26;20004;-86
2024/05/06 03:32:59;;;;;;;36.45;24.10;;;;;;;;;;5421882;26;19999;-88
2024/05/06 03:35:26;;;;;;;32.95;21.73;;;;;;;;;;5424898;26;20030;-87
2024/05/06 03:37:52;;;;;;;37.28;23.20;;;;;;;;;;5421183;26;20004;-87
2024/05/06 03:40:18;;;;;;;20.25;15.20;;;;;;;;;;5425109;26;20002;-89
2024/05/06 03:42:44;;;;;;;17.95;12.77;;;;;;;;;;5427031;26;20003;-88
2024/05/06 03:45:10;;;;;;;9.52;7.35;;;;;;;;;;5425401;26;20072;-87
2024/05/06 03:47:36;;;;;;;7.47;5.75;;;;;;;;;;5424128;26;20006;-82
2024/05/06 03:50:03;;;;;;;7.07;5.60;;;;;;;;;;5429890;26;20003;-79
2024/05/06 03:52:29;;;;;;;7.15;6.00;;;;;;;;;;5430856;26;20025;-82
2024/05/06 03:54:55;;;;;;;6.60;4.75;;;;;;;;;;5424956;26;20004;-87
2024/05/06 03:57:21;;;;;;;5.60;4.45;;;;;;;;;;5426451;26;20010;-84
2024/05/06 03:59:47;;;;;;;5.50;4.40;;;;;;;;;;5425580;26;20051;-83
2024/05/06 04:02:14;;;;;;;6.60;4.20;;;;;;;;;;5426138;26;19992;-83
2024/05/06 04:04:40;;;;;;;9.48;4.30;;;;;;;;;;5392753;26;20004;-86
2024/05/06 04:07:06;;;;;;;6.50;4.40;;;;;;;;;;5420565;26;20006;-79
2024/05/06 04:09:32;;;;;;;7.57;4.20;;;;;;;;;;5424299;26;20076;-79
2024/05/06 04:11:58;;;;;;;5.13;4.10;;;;;;;;;;5423317;26;20000;-81
2024/05/06 04:14:24;;;;;;;8.40;4.60;;;;;;;;;;5423060;26;19999;-79
2024/05/06 04:16:50;;;;;;;6.55;4.18;;;;;;;;;;5422198;26;19995;-82
2024/05/06 04:19:16;;;;;;;8.63;4.18;;;;;;;;;;5386311;26;20448;-82
2024/05/06 04:21:43;;;;;;;5.25;3.55;;;;;;;;;;5387650;26;19996;-80
2024/05/06 04:27:09;;;;;;;5.20;3.70;;;;;;;;;;5411115;26;20398;-80
2024/05/06 04:29:35;;;;;;;5.95;3.60;;;;;;;;;;5420731;26;20006;-80
2024/05/06 04:32:01;;;;;;;4.38;2.88;;;;;;;;;;5421835;26;20513;-81
2024/05/06 04:34:27;;;;;;;10.43;3.90;;;;;;;;;;5427639;26;20010;-91
2024/05/06 04:36:53;;;;;;;5.88;2.97;;;;;;;;;;5427112;26;19992;-91
2024/05/06 04:39:20;;;;;;;6.28;3.33;;;;;;;;;;5399151;26;19992;-90
2024/05/06 04:41:46;;;;;;;4.75;3.35;;;;;;;;;;5396657;26;20032;-90
2024/05/06 04:44:17;;;;;;;5.88;2.90;;;;;;;;;;5398976;26;19993;-90
2024/05/06 04:46:43;;;;;;;5.10;2.92;;;;;;;;;;5396567;26;19988;-90
2024/05/06 04:49:09;;;;;;;6.32;3.08;;;;;;;;;;5431381;26;20011;-87
2024/05/06 04:51:35;;;;;;;8.20;3.20;;;;;;;;;;5427261;26;19997;-88
2024/05/06 04:54:01;;;;;;;3.97;2.63;;;;;;;;;;5428288;26;20033;-89
2024/05/06 04:56:27;;;;;;;5.90;2.90;;;;;;;;;;5396953;26;19991;-89
2024/05/06 04:58:54;;;;;;;4.10;2.80;;;;;;;;;;5425695;26;20043;-89
2024/05/06 05:01:21;;;;;;;3.60;2.58;;;;;;;;;;5425215;26;19992;-89
2024/05/06 05:03:48;;;;;;;4.57;2.60;;;;;;;;;;5431899;26;20006;-92
2024/05/06 05:06:20;;;;;;;6.15;2.95;;;;;;;;;;5438050;26;19995;-90
2024/05/06 05:08:46;;;;;;;5.38;2.97;;;;;;;;;;5439698;26;20002;-91
2024/05/06 05:11:16;;;;;;;5.68;3.50;;;;;;;;;;5436294;26;19996;-90
2024/05/06 05:14:10;;;;;;;3.80;3.03;;;;;;;;;;5434773;26;20044;-91
2024/05/06 05:16:43;;;;;;;4.18;3.22;;;;;;;;;;5435018;26;20046;-92
2024/05/06 05:19:15;;;;;;;4.65;3.30;;;;;;;;;;5437392;26;20045;-89
2024/05/06 05:21:41;;;;;;;5.40;3.42;;;;;;;;;;5437337;26;20003;-90
2024/05/06 05:24:09;;;;;;;3.85;3.10;;;;;;;;;;5439036;26;19992;-88
2024/05/06 05:27:02;;;;;;;4.13;3.40;;;;;;;;;;5436746;26;19988;-92
2024/05/06 05:30:03;;;;;;;5.80;3.63;;;;;;;;;;5433055;26;19995;-91
2024/05/06 05:32:45;;;;;;;7.55;3.90;;;;;;;;;;5401025;26;20002;-91
2024/05/06 05:35:32;;;;;;;5.95;4.10;;;;;;;;;;5417397;26;20015;-88
2024/05/06 05:37:58;;;;;;;5.82;3.53;;;;;;;;;;5434979;26;20039;-92
2024/05/06 05:40:24;;;;;;;5.35;3.55;;;;;;;;;;5438376;26;19996;-90
2024/05/06 05:42:50;;;;;;;5.78;3.70;;;;;;;;;;5434993;26;20002;-90
2024/05/06 05:45:17;;;;;;;6.88;3.17;;;;;;;;;;5438283;26;19999;-88
2024/05/06 05:47:43;;;;;;;4.95;3.50;;;;;;;;;;5439085;26;19995;-88
2024/05/06 05:50:13;;;;;;;6.32;4.10;;;;;;;;;;5439291;26;20045;-88
2024/05/06 05:52:53;;;;;;;5.45;3.88;;;;;;;;;;5438961;26;19995;-83
2024/05/06 05:55:42;;;;;;;5.38;4.22;;;;;;;;;;5438473;26;20190;-90
2024/05/06 05:58:08;;;;;;;9.15;4.53;;;;;;;;;;5434747;26;20058;-89
2024/05/06 06:00:34;;;;;;;8.07;4.95;;;;;;;;;;5432536;26;20008;-87
2024/05/06 06:03:03;;;;;;;6.97;4.85;;;;;;;;;;5425697;26;19995;-88
2024/05/06 06:05:30;;;;;;;9.35;4.60;;;;;;;;;;5421787;26;20003;-90
2024/05/06 06:07:56;;;;;;;6.35;4.38;;;;;;;;;;5433819;26;19996;-86
2024/05/06 06:10:22;;;;;;;7.38;4.63;;;;;;;;;;5428456;26;20014;-88
2024/05/06 06:12:49;;;;;;;7.35;4.45;;;;;;;;;;5418142;26;20011;-87
2024/05/06 06:15:38;;;;;;;10.63;4.55;;;;;;;;;;5416560;26;19996;-84
2024/05/06 06:18:20;;;;;;;9.45;4.80;;;;;;;;;;5418831;21;20028;-86
2024/05/06 06:20:46;;;;;;;8.02;4.50;;;;;;;;;;5398215;26;19992;-88
2024/05/06 06:23:14;;;;;;;5.35;4.45;;;;;;;;;;5387391;26;20005;-90
2024/05/06 06:25:40;;;;;;;6.40;4.15;;;;;;;;;;5390344;26;20000;-90
2024/05/06 06:28:08;;;;;;;8.43;4.45;;;;;;;;;;5376483;21;20016;-88
2024/05/06 06:30:37;;;;;;;5.65;4.20;;;;;;;;;;5357673;26;20029;-89
2024/05/06 06:33:06;;;;;;;6.65;3.60;;;;;;;;;;5365230;26;19997;-92
2024/05/06 06:35:42;;;;;;;7.18;3.95;;;;;;;;;;5357742;26;20016;-89
2024/05/06 06:38:09;;;;;;;10.05;4.45;;;;;;;;;;5296512;26;20080;-87
2024/05/06 06:40:36;;;;;;;5.28;3.90;;;;;;;;;;5326712;26;20000;-88
2024/05/06 06:43:03;;;;;;;7.53;4.05;;;;;;;;;;5325551;26;20034;-90
2024/05/06 06:45:31;;;;;;;6.80;4.03;;;;;;;;;;5329818;26;19993;-91
2024/05/06 06:48:19;;;;;;;6.40;3.63;;;;;;;;;;5330256;27;20002;-89
2024/05/06 06:50:47;;;;;;;7.47;3.65;;;;;;;;;;5329859;26;20000;-91
2024/05/06 06:53:13;;;;;;;5.22;3.58;;;;;;;;;;5328299;26;19994;-91
2024/05/06 06:55:41;;;;;;;8.40;4.38;;;;;;;;;;5328138;26;20009;-90
2024/05/06 06:58:07;;;;;;;4.55;3.55;;;;;;;;;;5327278;26;20005;-89
2024/05/06 07:00:59;;;;;;;8.48;3.90;;;;;;;;;;5325369;26;20018;-88
2024/05/06 07:03:26;;;;;;;6.40;4.25;;;;;;;;;;5330025;26;19994;-91
2024/05/06 07:06:13;;;;;;;8.65;3.58;;;;;;;;;;5326699;26;20004;-91
2024/05/06 07:08:39;;;;;;;4.88;3.38;;;;;;;;;;5355267;26;19998;-91
2024/05/06 07:11:10;;;;;;;5.28;3.58;;;;;;;;;;5325503;26;20009;-91
2024/05/06 07:13:37;;;;;;;7.90;3.65;;;;;;;;;;5324937;27;19998;-91
2024/05/06 07:16:03;;;;;;;5.38;3.20;;;;;;;;;;5325753;27;20539;-90
2024/05/06 07:18:29;;;;;;;5.38;3.45;;;;;;;;;;5330981;26;19998;-92
2024/05/06 07:20:55;;;;;;;4.78;3.40;;;;;;;;;;5328975;26;20008;-89
2024/05/06 07:23:21;;;;;;;6.30;3.33;;;;;;;;;;5330163;26;20010;-91
2024/05/06 07:25:48;;;;;;;6.85;3.85;;;;;;;;;;5329298;26;20025;-90
2024/05/06 07:28:14;;;;;;;5.97;3.95;;;;;;;;;;5328823;26;20013;-88
2024/05/06 07:30:40;;;;;;;6.57;3.25;;;;;;;;;;5328269;26;20190;-87
2024/05/06 07:33:07;;;;;;;4.63;3.53;;;;;;;;;;5322337;26;20008;-88
2024/05/06 07:35:33;;;;;;;6.07;3.08;;;;;;;;;;5324354;26;20017;-87
2024/05/06 07:38:01;;;;;;;7.32;3.67;;;;;;;;;;5324986;26;20002;-88
2024/05/06 07:40:27;;;;;;;5.05;2.92;;;;;;;;;;5327573;26;20001;-88
2024/05/06 07:42:54;;;;;;;5.68;3.40;;;;;;;;;;5335378;26;20021;-83
2024/05/06 07:45:20;;;;;;;5.22;3.15;;;;;;;;;;5335802;26;19998;-86
2024/05/06 07:47:46;;;;;;;4.72;3.00;;;;;;;;;;5324156;26;20012;-86
2024/05/06 07:50:12;;;;;;;5.78;3.50;;;;;;;;;;5329580;26;20088;-91
2024/05/06 07:52:38;;;;;;;6.57;2.90;;;;;;;;;;5329705;26;20001;-90
2024/05/06 07:55:09;;;;;;;4.70;3.33;;;;;;;;;;5328294;26;20073;-90
2024/05/06 07:57:59;;;;;;;6.38;3.22;;;;;;;;;;5335366;26;19990;-85
2024/05/06 08:00:40;;;;;;;5.05;3.30;;;;;;;;;;5333261;26;19997;-89
2024/05/06 08:03:32;;;;;;;6.55;3.58;;;;;;;;;;5325162;26;20075;-91
2024/05/06 08:06:30;;;;;;;5.97;3.53;;;;;;;;;;5330587;26;20053;-89
2024/05/06 08:08:57;;;;;;;6.43;3.47;;;;;;;;;;5331104;26;19998;-88
2024/05/06 08:11:46;;;;;;;5.78;3.38;;;;;;;;;;5329365;26;20020;-91
2024/05/06 08:14:39;;;;;;;5.63;3.03;;;;;;;;;;5332976;27;20009;-91
2024/05/06 08:17:10;;;;;;;7.18;3.78;;;;;;;;;;5322060;27;20001;-87
2024/05/06 08:19:40;;;;;;;4.65;3.03;;;;;;;;;;5329665;26;20008;-88
2024/05/06 08:22:06;;;;;;;5.82;3.08;;;;;;;;;;5328763;26;19993;-90
2024/05/06 08:27:24;;;;;;;3.97;3.08;;;;;;;;;;5331238;26;20008;-88
2024/05/06 08:29:52;;;;;;;6.25;2.70;;;;;;;;;;5359984;26;20005;-92
2024/05/06 08:32:39;;;;;;;3.95;2.83;;;;;;;;;;5332466;27;19997;-89
2024/05/06 08:35:16;;;;;;;6.75;3.03;;;;;;;;;;5328026;27;20002;-89
2024/05/06 08:37:47;;;;;;;4.20;2.63;;;;;;;;;;5356987;26;20020;-87
2024/05/06 08:40:13;;;;;;;8.63;3.10;;;;;;;;;;5362269;26;19996;-88
2024/05/06 08:42:40;;;;;;;2.63;2.10;;;;;;;;;;5333647;26;20008;-89
2024/05/06 08:45:09;;;;;;;3.47;2.22;;;;;;;;;;5364241;26;20000;-89
2024/05/06 08:47:36;;;;;;;2.95;2.10;;;;;;;;;;5336173;26;20412;-90
2024/05/06 08:50:16;;;;;;;6.10;2.78;;;;;;;;;;5362100;26;19989;-85
2024/05/06 08:52:43;;;;;;;4.20;2.60;;;;;;;;;;5329018;26;20005;-88
2024/05/06 08:55:09;;;;;;;3.00;1.95;;;;;;;;;;5331205;26;20000;-88
2024/05/06 08:57:35;;;;;;;2.72;2.03;;;;;;;;;;5362237;26;20066;-88
2024/05/06 09:00:03;;;;;;;6.03;1.90;;;;;;;;;;5363345;26;20001;-86
2024/05/06 09:02:37;;;;;;;4.70;1.95;;;;;;;;;;5363557;26;20012;-89
2024/05/06 09:05:06;;;;;;;3.58;2.03;;;;;;;;;;5365802;26;19993;-91
2024/05/06 09:07:42;;;;;;;2.72;1.80;;;;;;;;;;5360458;26;20000;-88
2024/05/06 09:10:09;;;;;;;5.85;1.95;;;;;;;;;;5359307;26;20005;-89
2024/05/06 09:12:42;;;;;;;5.32;2.25;;;;;;;;;;5361045;26;20081;-89
2024/05/06 09:15:08;;;;;;;2.75;1.77;;;;;;;;;;5361721;26;19993;-89
2024/05/06 09:17:34;;;;;;;4.55;1.80;;;;;;;;;;5362442;26;20029;-90
2024/05/06 09:20:09;;;;;;;2.03;1.40;;;;;;;;;;5362985;26;19996;-90
2024/05/06 09:22:41;;;;;;;4.80;1.92;;;;;;;;;;5362987;26;20005;-90
2024/05/06 09:25:15;;;;;;;2.47;1.27;;;;;;;;;;5359605;26;20461;-91
2024/05/06 09:27:50;;;;;;;6.68;1.75;;;;;;;;;;5363027;26;20404;-92
2024/05/06 09:30:16;;;;;;;1.92;1.50;;;;;;;;;;5362803;26;20061;-87
2024/05/06 09:32:43;;;;;;;2.15;1.35;;;;;;;;;;5366530;26;20051;-86
2024/05/06 09:35:13;;;;;;;6.05;1.23;;;;;;;;;;5362288;26;20028;-88
2024/05/06 09:38:23;;;;;;;5.18;1.60;;;;;;;;;;5375794;21;20322;-90
2024/05/06 09:41:31;;;;;;;4.18;1.33;;;;;;;;;;5364270;26;20001;-86
2024/05/06 09:43:59;;;;;;;4.18;1.10;;;;;;;;;;5362804;26;19988;-91
2024/05/06 09:46:26;;;;;;;5.50;1.45;;;;;;;;;;5331379;26;19997;-87
2024/05/06 09:48:52;;;;;;;1.73;1.13;;;;;;;;;;5355640;26;19996;-89
2024/05/06 09:51:20;;;;;;;2.00;1.20;;;;;;;;;;5356968;26;20009;-87
2024/05/06 09:53:46;;;;;;;2.45;1.15;;;;;;;;;;5358786;26;20332;-88
2024/05/06 09:56:12;;;;;;;2.00;1.40;;;;;;;;;;5356940;26;20005;-87
2024/05/06 09:58:58;;;;;;;6.95;1.48;;;;;;;;;;5367313;26;19993;-88
2024/05/06 10:01:26;;;;;;;3.60;1.60;;;;;;;;;;5367471;26;20001;-90
2024/05/06 10:03:53;;;;;;;3.83;1.45;;;;;;;;;;5361013;26;20458;-91
2024/05/06 10:06:23;;;;;;;7.60;1.60;;;;;;;;;;5365158;26;20000;-88
2024/05/06 10:08:55;;;;;;;4.05;1.30;;;;;;;;;;5362330;26;20017;-90
2024/05/06 10:11:22;;;;;;;1.92;1.15;;;;;;;;;;5357317;26;20020;-90
2024/05/06 10:13:49;;;;;;;1.45;0.85;;;;;;;;;;5356146;26;20323;-89
2024/05/06 10:16:31;;;;;;;1.80;1.00;;;;;;;;;;5353364;26;20004;-87
2024/05/06 10:18:58;;;;;;;1.48;1.38;;;;;;;;;;5352793;26;19997;-86
2024/05/06 10:21:54;;;;;;;1.35;1.15;;;;;;;;;;5352768;26;19997;-87
2024/05/06 10:24:33;;;;;;;1.95;1.33;;;;;;;;;;5337994;26;20004;-91
2024/05/06 10:27:02;;;;;;;1.48;1.00;;;;;;;;;;5360193;26;20007;-86
2024/05/06 10:29:29;;;;;;;4.60;0.98;;;;;;;;;;5356350;26;19997;-89
2024/05/06 10:31:56;;;;;;;1.80;1.20;;;;;;;;;;5326934;26;20000;-88
2024/05/06 10:34:26;;;;;;;2.83;1.10;;;;;;;;;;5360645;26;19997;-89
2024/05/06 10:37:02;;;;;;;2.17;1.00;;;;;;;;;;5439569;21;20138;-86
2024/05/06 10:39:51;;;;;;;3.72;1.27;;;;;;;;;;5401638;26;20003;-84
2024/05/06 10:42:19;;;;;;;1.80;1.13;;;;;;;;;;5394491;26;19997;-89
2024/05/06 10:44:49;;;;;;;2.30;1.20;;;;;;;;;;5394939;26;20464;-89
2024/05/06 10:47:21;;;;;;;2.75;1.30;;;;;;;;;;5394282;26;19996;-88
2024/05/06 10:49:49;;;;;;;1.13;1.02;;;;;;;;;;5389672;26;19996;-88
2024/05/06 10:52:22;;;;;;;4.15;1.38;;;;;;;;;;5391919;26;20051;-87
2024/05/06 10:54:49;;;;;;;1.90;1.00;;;;;;;;;;5389088;26;19997;-88
2024/05/06 10:57:15;;;;;;;1.98;1.00;;;;;;;;;;5386429;26;20230;-86
2024/05/06 10:59:41;;;;;;;1.77;1.00;;;;;;;;;;5389240;26;20430;-88
2024/05/06 11:02:08;;;;;;;2.00;1.30;;;;;;;;;;5392769;26;20320;-86
2024/05/06 11:04:35;;;;;;;1.20;0.90;;;;;;;;;;5390774;26;19996;-87
2024/05/06 11:07:01;;;;;;;1.23;1.00;;;;;;;;;;5392095;26;20008;-87
2024/05/06 11:09:27;;;;;;;1.20;0.95;;;;;;;;;;5394269;26;20007;-86
2024/05/06 11:11:53;;;;;;;1.35;1.00;;;;;;;;;;5365189;26;19996;-88
2024/05/06 11:14:19;;;;;;;1.35;0.82;;;;;;;;;;5391378;26;20000;-88
2024/05/06 11:16:48;;;;;;;2.25;1.00;;;;;;;;;;5390699;26;20047;-86
2024/05/06 11:19:21;;;;;;;2.30;0.73;;;;;;;;;;5398675;26;20000;-84
2024/05/06 11:21:49;;;;;;;2.88;0.93;;;;;;;;;;5394064;26;20066;-87
2024/05/06 11:24:16;;;;;;;0.70;0.63;;;;;;;;;;5391883;26;19996;-86
2024/05/06 11:26:50;;;;;;;1.10;0.82;;;;;;;;;;5394425;26;20048;-87
2024/05/06 11:29:17;;;;;;;2.80;1.00;;;;;;;;;;5392298;26;19996;-87
2024/05/06 11:31:47;;;;;;;0.90;0.70;;;;;;;;;;5389145;26;20024;-86
2024/05/06 11:34:13;;;;;;;1.80;0.93;;;;;;;;;;5364653;26;20011;-81
2024/05/06 11:36:39;;;;;;;1.45;0.70;;;;;;;;;;5398102;26;19996;-79
2024/05/06 11:39:05;;;;;;;1.33;0.60;;;;;;;;;;5395529;26;20000;-86
2024/05/06 11:41:31;;;;;;;0.90;0.60;;;;;;;;;;5392899;26;19992;-86
2024/05/06 11:43:57;;;;;;;2.97;0.90;;;;;;;;;;5390554;26;20392;-85
2024/05/06 11:46:24;;;;;;;3.05;0.70;;;;;;;;;;5390391;26;20004;-81
2024/05/06 11:48:50;;;;;;;1.13;0.82;;;;;;;;;;5388315;26;20007;-82
2024/05/06 11:51:16;;;;;;;2.60;0.73;;;;;;;;;;5389910;26;20003;-84
2024/05/06 11:53:42;;;;;;;2.65;0.80;;;;;;;;;;5391140;26;20008;-81
2024/05/06 11:56:11;;;;;;;1.17;0.80;;;;;;;;;;5390968;26;20000;-88
2024/05/06 11:58:37;;;;;;;1.50;0.70;;;;;;;;;;5392789;26;19997;-86
2024/05/06 12:01:03;;;;;;;0.95;0.75;;;;;;;;;;5395593;26;19996;-80
2024/05/06 12:03:30;;;;;;;2.20;0.68;;;;;;;;;;5396537;26;20007;-86
2024/05/06 12:05:58;;;;;;;0.55;0.50;;;;;;;;;;5393743;26;20004;-86
2024/05/06 12:08:24;;;;;;;5.40;0.80;;;;;;;;;;5392303;26;20445;-86
2024/05/06 12:10:50;;;;;;;3.53;0.98;;;;;;;;;;5389427;26;19993;-84
2024/05/06 12:13:16;;;;;;;3.38;0.88;;;;;;;;;;5390569;26;20016;-87
2024/05/06 12:15:42;;;;;;;3.88;0.88;;;;;;;;;;5390597;26;19992;-87
2024/05/06 12:18:08;;;;;;;1.10;0.73;;;;;;;;;;5395060;26;20015;-87
2024/05/06 12:20:34;;;;;;;5.97;1.40;;;;;;;;;;5390925;26;19992;-83
2024/05/06 12:23:01;;;;;;;3.15;0.77;;;;;;;;;;5388663;26;19996;-83
2024/05/06 12:25:27;;;;;;;3.30;0.77;;;;;;;;;;5392018;26;19996;-85
2024/05/06 12:27:53;;;;;;;1.60;0.60;;;;;;;;;;5390451;26;20004;-84
2024/05/06 12:30:19;;;;;;;1.98;0.70;;;;;;;;;;5391286;26;20017;-84
2024/05/06 12:32:45;;;;;;;1.45;0.52;;;;;;;;;;5389619;26;20412;-87
2024/05/06 12:35:11;;;;;;;2.42;0.63;;;;;;;;;;5391879;26;20000;-88
2024/05/06 12:37:38;;;;;;;0.63;0.52;;;;;;;;;;5382922;26;20456;-88
2024/05/06 12:40:05;;;;;;;0.70;0.70;;;;;;;;;;5354968;26;19993;-84
2024/05/06 12:42:31;;;;;;;0.88;0.60;;;;;;;;;;5358232;26;20001;-89
2024/05/06 12:44:57;;;;;;;1.10;0.77;;;;;;;;;;5386588;26;20011;-84
2024/05/06 12:47:24;;;;;;;0.90;0.50;;;;;;;;;;5356614;26;19996;-81
2024/05/06 12:49:50;;;;;;;1.10;0.73;;;;;;;;;;5352296;26;20001;-87
2024/05/06 12:52:16;;;;;;;1.00;0.80;;;;;;;;;;5356791;26;19993;-88
2024/05/06 12:54:42;;;;;;;3.58;0.82;;;;;;;;;;5353813;26;20021;-82
2024/05/06 12:57:08;;;;;;;1.40;0.95;;;;;;;;;;5352682;26;19993;-84
2024/05/06 12:59:34;;;;;;;0.82;0.70;;;;;;;;;;5357521;26;20040;-79
2024/05/06 13:02:00;;;;;;;1.70;0.70;;;;;;;;;;5356443;26;20016;-87
2024/05/06 13:04:26;;;;;;;3.78;0.80;;;;;;;;;;5355398;26;20029;-87
2024/05/06 13:06:52;;;;;;;1.13;0.80;;;;;;;;;;5354189;26;20000;-83
2024/05/06 13:09:19;;;;;;;2.50;0.65;;;;;;;;;;5356076;26;19996;-81
2024/05/06 13:11:45;;;;;;;2.63;0.82;;;;;;;;;;5359364;26;19993;-85
2024/05/06 13:14:11;;;;;;;1.83;0.70;;;;;;;;;;5358392;26;20007;-86
2024/05/06 13:16:38;;;;;;;2.33;0.60;;;;;;;;;;5353730;26;20073;-85
2024/05/06 13:19:04;;;;;;;0.55;0.40;;;;;;;;;;5352542;26;20000;-82
2024/05/06 13:21:30;;;;;;;0.40;0.40;;;;;;;;;;5353622;26;19997;-85
2024/05/06 13:23:56;;;;;;;0.57;0.57;;;;;;;;;;5355307;26;20001;-83
2024/05/06 13:26:22;;;;;;;1.35;0.70;;;;;;;;;;5352644;26;20037;-83
2024/05/06 13:28:48;;;;;;;1.70;0.80;;;;;;;;;;5353006;26;19997;-86
2024/05/06 13:31:15;;;;;;;0.93;0.60;;;;;;;;;;5358221;26;20005;-89
2024/05/06 13:33:41;;;;;;;0.47;0.40;;;;;;;;;;5356521;26;20001;-86
2024/05/06 13:36:08;;;;;;;1.95;0.60;;;;;;;;;;5362072;26;20496;-82
2024/05/06 13:38:36;;;;;;;2.78;0.70;;;;;;;;;;5362868;26;20025;-86
2024/05/06 13:41:19;;;;;;;0.88;0.50;;;;;;;;;;5362416;26;20003;-81
2024/05/06 13:43:48;;;;;;;16.60;0.50;;;;;;;;;;5391915;26;20000;-85
2024/05/06 13:46:15;;;;;;;0.60;0.57;;;;;;;;;;5388608;26;20007;-79
2024/05/06 13:48:42;;;;;;;2.00;0.57;;;;;;;;;;5395039;26;20050;-89
2024/05/06 13:51:08;;;;;;;2.63;0.60;;;;;;;;;;5393861;26;20017;-89
2024/05/06 13:53:34;;;;;;;0.73;0.60;;;;;;;;;;5364927;26;20349;-84
2024/05/06 13:56:00;;;;;;;0.40;0.40;;;;;;;;;;5392634;26;20002;-88
2024/05/06 13:58:26;;;;;;;1.05;0.40;;;;;;;;;;5389871;26;19996;-89
2024/05/06 14:00:56;;;;;;;1.52;0.50;;;;;;;;;;5390793;26;19997;-88
2024/05/06 14:03:23;;;;;;;1.33;0.60;;;;;;;;;;5394843;26;20054;-89
2024/05/06 14:05:50;;;;;;;0.50;0.50;;;;;;;;;;5396425;26;20078;-85
2024/05/06 14:08:18;;;;;;;1.00;0.90;;;;;;;;;;5395485;26;19992;-89
2024/05/06 14:10:54;;;;;;;1.42;0.70;;;;;;;;;;5397692;26;20005;-89
2024/05/06 14:13:22;;;;;;;4.25;0.98;;;;;;;;;;5396851;26;20003;-85
2024/05/06 14:15:49;;;;;;;1.60;0.52;;;;;;;;;;5401204;26;20004;-89
2024/05/06 14:18:16;;;;;;;2.13;0.70;;;;;;;;;;5400278;26;19992;-89
2024/05/06 14:20:42;;;;;;;0.68;0.60;;;;;;;;;;5396636;26;19996;-87
2024/05/06 14:23:10;;;;;;;0.90;0.65;;;;;;;;;;5398321;26;20069;-83
2024/05/06 14:25:44;;;;;;;1.60;0.57;;;;;;;;;;5398266;26;19996;-88
2024/05/06 14:28:12;;;;;;;1.40;0.60;;;;;;;;;;5386704;26;20007;-86
2024/05/06 14:30:39;;;;;;;0.90;0.70;;;;;;;;;;5395159;26;19996;-89
2024/05/06 14:33:06;;;;;;;2.83;0.52;;;;;;;;;;5396041;26;20000;-84
2024/05/06 14:35:32;;;;;;;1.05;0.60;;;;;;;;;;5397135;26;19999;-90
2024/05/06 14:38:02;;;;;;;2.25;0.70;;;;;;;;;;5332074;26;20007;-84
2024/05/06 14:40:30;;;;;;;3.50;0.73;;;;;;;;;;5366732;26;20051;-81
2024/05/06 14:42:57;;;;;;;4.45;1.00;;;;;;;;;;5368617;26;19996;-81
2024/05/06 14:45:33;;;;;;;1.52;0.70;;;;;;;;;;5352701;26;19999;-84
2024/05/06 14:47:59;;;;;;;0.50;0.50;;;;;;;;;;5368677;26;19981;-79
2024/05/06 14:50:28;;;;;;;0.88;0.65;;;;;;;;;;5366059;26;20043;-82